createdAt,value
2023-05-10T03:44:10.745Z,100611.72
2023-05-10T03:47:14.127Z,100611.72
2023-05-10T03:50:17.298Z,100623.13
2023-05-10T03:53:20.608Z,100629.97
2023-05-10T03:56:24.897Z,100624.16
2023-05-10T03:59:28.104Z,100627.56
2023-05-10T04:02:31.480Z,100622.06
2023-05-10T04:05:37.074Z,100620.44
2023-05-10T04:08:39.878Z,100621.09
2023-05-10T04:11:42.868Z,100621.72
2023-05-10T04:14:45.513Z,100625.09
2023-05-10T04:17:48.620Z,100617.06
2023-05-10T04:20:51.673Z,100623.28
2023-05-10T04:23:54.427Z,100617.28
2023-05-10T04:26:57.863Z,100616.78
2023-05-10T04:30:01.686Z,100624.41
2023-05-10T04:33:04.591Z,100630.13
2023-05-10T04:36:07.944Z,100624.69
2023-05-10T04:39:10.924Z,100624.41
2023-05-10T04:42:15.852Z,100622.00
2023-05-10T04:45:18.714Z,100631.19
2023-05-10T04:48:21.698Z,100633.28
2023-05-10T04:51:24.276Z,100631.84
2023-05-10T04:54:27.433Z,100626.28
2023-05-10T04:57:30.018Z,100627.03
2023-05-10T05:00:36.170Z,100625.34
2023-05-10T05:03:38.911Z,100625.53
2023-05-10T05:06:41.973Z,100627.63
2023-05-10T05:09:44.660Z,100626.81
2023-05-10T05:12:47.598Z,100634.81
2023-05-10T05:15:50.237Z,100627.50
2023-05-10T05:18:53.181Z,100638.06
2023-05-10T05:21:55.783Z,100635.53
2023-05-10T05:25:03.577Z,100638.75
2023-05-10T05:28:06.186Z,100635.94
2023-05-10T05:31:09.385Z,100651.41
2023-05-10T05:34:13.156Z,100643.38
2023-05-10T05:37:23.254Z,100643.00
2023-05-10T05:40:25.901Z,100644.28
2023-05-10T05:43:28.856Z,100655.06
2023-05-10T05:46:31.650Z,100660.13
2023-05-10T05:49:34.497Z,100655.19
2023-05-10T05:52:37.250Z,100663.28
2023-05-10T05:55:40.093Z,100663.28
2023-05-10T05:58:42.535Z,100663.78
2023-05-10T06:01:45.575Z,100661.06
2023-05-10T06:04:48.589Z,100670.13
2023-05-10T06:07:51.229Z,100669.12
2023-05-10T06:10:54.110Z,100669.09
2023-05-10T06:13:57.014Z,100669.22
2023-05-10T06:17:01.126Z,100669.75
2023-05-10T06:20:04.543Z,100673.12
2023-05-10T06:23:07.963Z,100669.41
2023-05-10T06:26:11.054Z,100664.94
2023-05-10T06:29:14.168Z,100675.72
2023-05-10T06:32:16.797Z,100679.88
2023-05-10T06:35:19.883Z,100679.75
2023-05-10T06:38:22.817Z,100684.69
2023-05-10T06:41:25.620Z,100687.53
2023-05-10T06:44:28.255Z,100678.28
2023-05-10T06:47:31.052Z,100680.94
2023-05-10T06:50:34.350Z,100682.81
2023-05-10T06:53:37.392Z,100683.56
2023-05-10T06:56:39.965Z,100683.63
2023-05-10T06:59:42.865Z,100675.62
2023-05-10T07:02:45.802Z,100687.75
2023-05-10T07:05:48.755Z,100680.75
2023-05-10T07:08:51.507Z,100678.75
2023-05-10T07:11:54.498Z,100679.22
2023-05-10T07:14:57.180Z,100679.53
2023-05-10T07:18:00.300Z,100667.22
2023-05-10T07:21:04.109Z,100672.38
2023-05-10T07:24:07.206Z,100675.59
2023-05-10T07:27:10.170Z,100666.38
2023-05-10T07:30:13.878Z,100662.97
2023-05-10T07:33:17.050Z,100659.59
2023-05-10T07:36:20.063Z,100664.53
2023-05-10T07:39:27.792Z,100659.47
2023-05-10T07:42:31.112Z,100667.31
2023-05-10T07:45:34.676Z,100666.59
2023-05-10T07:48:38.273Z,100664.22
2023-05-10T07:51:41.509Z,100659.22
2023-05-10T07:54:44.521Z,100659.66
2023-05-10T07:57:47.217Z,100661.25
2023-05-10T08:00:50.437Z,100657.09
2023-05-10T08:03:54.684Z,100658.22
2023-05-10T08:06:57.522Z,100666.38
2023-05-10T08:10:00.831Z,100662.22
2023-05-10T08:13:03.397Z,100659.16
2023-05-10T08:16:06.455Z,100658.25
2023-05-10T08:19:09.107Z,100663.38
2023-05-10T08:22:12.160Z,100661.06
2023-05-10T08:25:14.968Z,100654.41
2023-05-10T08:28:18.947Z,100655.59
2023-05-10T08:31:21.665Z,100664.81
2023-05-10T08:34:25.027Z,100664.03
2023-05-10T08:37:31.139Z,100656.75
2023-05-10T08:40:34.296Z,100663.69
2023-05-10T08:43:37.131Z,100652.16
2023-05-10T08:46:46.307Z,100660.31
2023-05-10T08:49:52.314Z,100652.81
2023-05-10T08:52:58.700Z,100655.38
2023-05-10T08:56:02.881Z,100654.53
2023-05-10T08:59:05.868Z,100659.81
2023-05-10T09:02:12.663Z,100655.41
2023-05-10T09:05:17.221Z,100658.22
2023-05-10T09:08:21.351Z,100658.88
2023-05-10T09:11:25.327Z,100655.91
2023-05-10T09:14:28.146Z,100661.72
2023-05-10T09:17:31.340Z,100656.38
2023-05-10T09:20:33.916Z,100656.63
2023-05-10T09:23:38.865Z,100657.50
2023-05-10T09:26:53.045Z,100652.84
2023-05-10T09:29:56.790Z,100651.56
2023-05-10T09:33:01.321Z,100653.81
2023-05-10T09:36:09.261Z,100648.78
2023-05-10T09:39:11.856Z,100640.09
2023-05-10T09:42:19.259Z,100636.22
2023-05-10T09:45:23.085Z,100637.84
2023-05-10T09:48:26.097Z,100632.28
2023-05-10T09:51:28.968Z,100644.63
2023-05-10T09:54:33.358Z,100639.81
2023-05-10T09:57:35.917Z,100640.37
2023-05-10T10:00:39.557Z,100643.91
2023-05-10T10:03:44.488Z,100627.44
2023-05-10T10:06:47.127Z,100621.78
2023-05-10T10:09:50.004Z,100632.72
2023-05-10T10:12:53.109Z,100631.75
2023-05-10T10:15:56.069Z,100629.38
2023-05-10T10:18:59.589Z,100616.13
2023-05-10T10:22:02.462Z,100613.37
2023-05-10T10:25:05.918Z,100619.31
2023-05-10T10:28:28.471Z,100608.53
2023-05-10T10:31:47.399Z,100603.44
2023-05-10T10:34:51.046Z,100605.16
2023-05-10T10:37:53.947Z,100599.97
2023-05-10T10:41:08.910Z,100598.66
2023-05-10T10:44:23.621Z,100587.28
2023-05-10T10:47:32.097Z,100589.69
2023-05-10T10:50:45.920Z,100588.03
2023-05-10T10:53:49.338Z,100587.38
2023-05-10T10:57:24.469Z,100591.88
2023-05-10T11:00:30.204Z,100596.00
2023-05-10T11:03:32.790Z,100578.03
2023-05-10T11:06:37.237Z,100566.37
2023-05-10T11:09:41.394Z,100562.84
2023-05-10T11:12:55.174Z,100562.03
2023-05-10T11:15:58.340Z,100560.72
2023-05-10T11:19:07.845Z,100554.25
2023-05-10T11:22:14.809Z,100569.41
2023-05-10T11:25:17.671Z,100553.13
2023-05-10T11:28:20.801Z,100554.56
2023-05-10T11:31:24.915Z,100553.56
2023-05-10T11:34:31.342Z,100542.50
2023-05-10T11:37:35.390Z,100544.22
2023-05-10T11:40:39.322Z,100539.38
2023-05-10T11:43:43.175Z,100543.66
2023-05-10T11:46:45.917Z,100544.94
2023-05-10T11:49:49.432Z,100540.16
2023-05-10T11:53:01.209Z,100537.41
2023-05-10T11:56:08.798Z,100535.06
2023-05-10T11:59:11.614Z,100538.00
2023-05-10T12:02:15.271Z,100536.41
2023-05-10T12:05:18.872Z,100539.03
2023-05-10T12:08:26.720Z,100547.62
2023-05-10T12:11:29.831Z,100546.50
2023-05-10T12:14:36.197Z,100533.69
2023-05-10T12:17:43.324Z,100536.72
2023-05-10T12:20:46.126Z,100532.37
2023-05-10T12:23:54.417Z,100530.81
2023-05-10T12:26:57.067Z,100533.88
2023-05-10T12:30:04.085Z,100535.44
2023-05-10T12:33:12.834Z,100533.78
2023-05-10T12:36:19.008Z,100520.72
2023-05-10T12:39:21.806Z,100524.91
2023-05-10T12:42:26.190Z,100523.03
2023-05-10T12:45:28.802Z,100514.53
2023-05-10T12:48:32.799Z,100510.41
2023-05-10T12:51:37.980Z,100505.81
2023-05-10T12:54:40.921Z,100508.75
2023-05-10T12:57:45.578Z,100501.06
2023-05-10T13:00:48.659Z,100499.59
2023-05-10T13:03:51.546Z,100489.88
2023-05-10T13:06:56.492Z,100479.31
2023-05-10T13:09:59.119Z,100486.12
2023-05-10T13:13:04.136Z,100477.50
2023-05-10T13:16:07.188Z,100473.12
2023-05-10T13:19:10.256Z,100482.66
2023-05-10T13:22:13.159Z,100481.66
2023-05-10T13:25:16.049Z,100478.66
2023-05-10T13:28:18.564Z,100463.84
2023-05-10T13:31:21.704Z,100462.22
2023-05-10T13:34:25.241Z,100455.13
2023-05-10T13:37:28.136Z,100460.31
2023-05-10T13:40:30.829Z,100456.28
2023-05-10T13:43:33.705Z,100441.03
2023-05-10T13:46:36.324Z,100440.28
2023-05-10T13:49:39.630Z,100433.19
2023-05-10T13:52:42.198Z,100441.94
2023-05-10T13:55:45.162Z,100437.37
2023-05-10T13:58:48.559Z,100423.13
2023-05-10T14:01:51.755Z,100436.66
2023-05-10T14:04:54.618Z,100427.13
2023-05-10T14:07:57.379Z,100413.66
2023-05-10T14:11:00.560Z,100416.00
2023-05-10T14:14:15.493Z,100417.88
2023-05-10T14:17:21.205Z,100402.13
2023-05-10T14:20:24.058Z,100413.94
2023-05-10T14:23:27.251Z,100411.03
2023-05-10T14:26:32.440Z,100397.56
2023-05-10T14:29:35.370Z,100388.66
2023-05-10T14:32:38.233Z,100399.63
2023-05-10T14:35:41.639Z,100399.72
2023-05-10T14:38:44.282Z,100392.91
2023-05-10T14:41:48.231Z,100388.94
2023-05-10T14:44:50.867Z,100385.75
2023-05-10T14:47:55.937Z,100391.41
2023-05-10T14:50:58.628Z,100397.47
2023-05-10T14:54:01.730Z,100401.16
2023-05-10T14:57:04.309Z,100399.03
2023-05-10T15:00:08.184Z,100382.59
2023-05-10T15:03:11.496Z,100385.75
2023-05-10T15:06:18.134Z,100386.19
2023-05-10T15:09:20.798Z,100386.59
2023-05-10T15:12:23.732Z,100392.81
2023-05-10T15:15:26.388Z,100387.13
2023-05-10T15:18:29.332Z,100381.25
2023-05-10T15:21:36.144Z,100380.56
2023-05-10T15:24:39.230Z,100374.94
2023-05-10T15:27:41.690Z,100376.06
2023-05-10T15:30:45.075Z,100376.59
2023-05-10T15:33:47.714Z,100372.78
2023-05-10T15:36:50.619Z,100375.69
